createdAt,value
2023-02-25T00:00:05.454Z,1.57
2023-02-25T00:01:05.341Z,1.60
2023-02-25T00:02:05.372Z,1.60
2023-02-25T00:03:05.334Z,1.60
2023-02-25T00:04:05.325Z,1.62
2023-02-25T00:05:05.309Z,1.62
2023-02-25T00:06:05.383Z,1.64
2023-02-25T00:07:05.284Z,1.62
2023-02-25T00:08:05.293Z,1.60
2023-02-25T00:09:05.242Z,1.59
2023-02-25T00:10:05.238Z,1.60
2023-02-25T00:11:05.216Z,1.60
2023-02-25T00:12:05.242Z,1.64
2023-02-25T00:13:17.311Z,1.66
2023-02-25T00:14:06.208Z,1.67
2023-02-25T00:15:05.205Z,1.66
2023-02-25T00:16:05.168Z,1.67
2023-02-25T00:17:05.365Z,1.67
2023-02-25T00:18:05.255Z,1.64
2023-02-25T00:19:05.198Z,1.63
2023-02-25T00:20:05.126Z,1.60
2023-02-25T00:21:05.121Z,1.63
2023-02-25T00:22:05.141Z,1.63
2023-02-25T00:23:05.116Z,1.60
2023-02-25T00:24:15.873Z,1.57
2023-02-25T00:25:06.083Z,1.59
2023-02-25T00:26:05.632Z,1.57
2023-02-25T00:27:05.060Z,1.53
2023-02-25T00:28:05.056Z,1.52
2023-02-25T00:29:05.045Z,1.48
2023-02-25T00:30:05.056Z,1.46
2023-02-25T00:31:05.150Z,1.45
2023-02-25T00:32:05.376Z,1.42
2023-02-25T00:33:04.983Z,1.44
2023-02-25T00:34:04.984Z,1.44
2023-02-25T00:35:04.977Z,1.46
2023-02-25T00:36:04.987Z,1.45
2023-02-25T00:37:05.096Z,1.44
2023-02-25T00:38:15.320Z,1.42
2023-02-25T00:39:06.079Z,1.41
2023-02-25T00:40:04.979Z,1.41
2023-02-25T00:41:04.905Z,1.41
2023-02-25T00:42:04.933Z,1.39
2023-02-25T00:43:04.930Z,1.38
2023-02-25T00:44:04.881Z,1.38
2023-02-25T00:45:04.865Z,1.36
2023-02-25T00:46:04.979Z,1.36
2023-02-25T00:47:04.898Z,1.36
2023-02-25T00:48:04.952Z,1.38
2023-02-25T00:49:04.838Z,1.42
2023-02-25T00:50:04.829Z,1.39
2023-02-25T00:51:04.840Z,1.39
2023-02-25T00:52:04.850Z,1.38
2023-02-25T00:53:04.788Z,1.36
2023-02-25T00:54:04.770Z,1.36
2023-02-25T00:55:04.793Z,1.36
2023-02-25T00:56:04.743Z,1.35
2023-02-25T00:57:04.804Z,1.34
2023-02-25T00:58:04.736Z,1.31
2023-02-25T00:59:04.799Z,1.28
2023-02-25T01:00:04.727Z,1.27
2023-02-25T01:01:04.727Z,1.26
2023-02-25T01:02:04.701Z,1.24
2023-02-25T01:03:04.806Z,1.24
2023-02-25T01:04:04.781Z,1.21
2023-02-25T01:05:04.754Z,1.18
2023-02-25T01:06:04.694Z,1.16
2023-02-25T01:07:05.186Z,1.12
2023-02-25T01:08:04.737Z,1.09
2023-02-25T01:09:04.639Z,1.09
2023-02-25T01:10:04.593Z,1.09
2023-02-25T01:11:04.629Z,1.08
2023-02-25T01:12:04.710Z,1.08
2023-02-25T01:13:04.707Z,1.02
2023-02-25T01:14:04.613Z,1.02
2023-02-25T01:15:04.568Z,0.99
2023-02-25T01:16:04.603Z,0.99
2023-02-25T01:17:04.588Z,0.99
2023-02-25T01:18:04.507Z,1.02
2023-02-25T01:19:04.528Z,1.00
2023-02-25T01:20:04.516Z,1.00
2023-02-25T01:21:04.480Z,1.00
2023-02-25T01:22:04.491Z,1.00
2023-02-25T01:23:04.458Z,1.00
2023-02-25T01:24:04.541Z,0.99
2023-02-25T01:25:04.525Z,0.96
2023-02-25T01:26:04.421Z,0.92
2023-02-25T01:27:04.444Z,0.92
2023-02-25T01:28:04.401Z,0.92
2023-02-25T01:29:04.407Z,0.92
2023-02-25T01:30:04.539Z,0.90
2023-02-25T01:31:04.462Z,0.87
2023-02-25T01:32:04.627Z,0.84
2023-02-25T01:33:04.371Z,0.84
2023-02-25T01:34:04.344Z,0.81
2023-02-25T01:35:04.344Z,0.80
2023-02-25T01:36:04.347Z,0.74
2023-02-25T01:37:04.308Z,0.73
2023-02-25T01:38:04.354Z,0.70
2023-02-25T01:39:04.345Z,0.69
2023-02-25T01:40:04.286Z,0.67
2023-02-25T01:41:04.294Z,0.67
2023-02-25T01:42:04.268Z,0.64
2023-02-25T01:43:04.274Z,0.64
2023-02-25T01:44:04.300Z,0.63
2023-02-25T01:45:04.240Z,0.62
2023-02-25T01:46:04.289Z,0.62
2023-02-25T01:47:04.365Z,0.62
2023-02-25T01:48:04.215Z,0.60
2023-02-25T01:49:04.206Z,0.59
2023-02-25T01:50:04.278Z,0.56
2023-02-25T01:51:04.195Z,0.59
2023-02-25T01:52:04.180Z,0.59
2023-02-25T01:53:04.204Z,0.56
2023-02-25T01:54:04.159Z,0.51
2023-02-25T01:55:04.201Z,0.51
2023-02-25T01:56:04.185Z,0.51
2023-02-25T01:57:04.149Z,0.53
2023-02-25T01:58:04.105Z,0.50
2023-02-25T01:59:04.120Z,0.51
2023-02-25T02:00:04.193Z,0.51
2023-02-25T02:01:04.143Z,0.51
2023-02-25T02:02:04.137Z,0.48
2023-02-25T02:03:04.055Z,0.47
2023-02-25T02:04:04.085Z,0.47
2023-02-25T02:05:04.049Z,0.48
2023-02-25T02:06:04.042Z,0.48
2023-02-25T02:07:04.008Z,0.48
2023-02-25T02:08:04.112Z,0.48
2023-02-25T02:09:04.014Z,0.50
2023-02-25T02:10:04.034Z,0.51
2023-02-25T02:11:03.978Z,0.51
2023-02-25T02:12:03.971Z,0.51
2023-02-25T02:13:03.957Z,0.48
2023-02-25T02:14:03.972Z,0.50
2023-02-25T02:15:03.987Z,0.48
2023-02-25T02:16:04.056Z,0.45
2023-02-25T02:17:04.036Z,0.45
2023-02-25T02:18:03.926Z,0.43
2023-02-25T02:19:04.556Z,0.45
2023-02-25T02:20:03.934Z,0.47
2023-02-25T02:21:03.934Z,0.48
2023-02-25T02:22:03.914Z,0.50
2023-02-25T02:23:04.013Z,0.48
2023-02-25T02:24:03.870Z,0.51
2023-02-25T02:25:03.840Z,0.53
2023-02-25T02:26:03.855Z,0.53
2023-02-25T05:14:21.433Z,0.45
2023-02-25T05:15:21.329Z,0.44
2023-02-25T05:16:21.684Z,0.44
2023-02-25T05:17:21.314Z,0.45
2023-02-25T05:18:21.322Z,0.44
2023-02-25T05:19:21.357Z,0.44
2023-02-25T05:20:21.398Z,0.44
2023-02-25T05:21:21.289Z,0.47
2023-02-25T05:22:21.265Z,0.50
2023-02-25T05:23:21.255Z,0.53
2023-02-25T05:24:21.286Z,0.53
2023-02-25T05:25:21.338Z,0.50
2023-02-25T05:26:21.838Z,0.50
2023-02-25T05:27:21.228Z,0.48
2023-02-25T05:28:21.276Z,0.48
2023-02-25T05:29:21.195Z,0.48
2023-02-25T05:30:21.285Z,0.47
2023-02-25T05:31:21.334Z,0.45
2023-02-25T05:32:21.229Z,0.45
2023-02-25T05:33:21.152Z,0.45
2023-02-25T05:34:21.149Z,0.48
2023-02-25T05:35:21.190Z,0.47
2023-02-25T05:36:21.429Z,0.48
2023-02-25T05:37:21.103Z,0.47
2023-02-25T05:38:21.107Z,0.48
2023-02-25T05:39:21.140Z,0.47
2023-02-25T05:40:21.099Z,0.48
2023-02-25T05:41:21.113Z,0.45
2023-02-25T05:42:21.078Z,0.47
2023-02-25T05:43:21.058Z,0.50
2023-02-25T05:44:21.038Z,0.50
2023-02-25T05:45:21.048Z,0.50
2023-02-25T05:46:21.349Z,0.51
2023-02-25T05:47:21.081Z,0.50
2023-02-25T05:48:21.004Z,0.51
2023-02-25T05:49:20.988Z,0.48
2023-02-25T05:50:20.975Z,0.50
2023-02-25T05:51:20.995Z,0.47
2023-02-25T05:52:20.999Z,0.48
2023-02-25T05:53:20.950Z,0.47
2023-02-25T05:54:20.958Z,0.47
2023-02-25T05:55:20.989Z,0.48
2023-02-25T05:56:21.171Z,0.45
2023-02-25T05:57:21.604Z,0.47
2023-02-25T05:58:20.889Z,0.45
2023-02-25T05:59:20.873Z,0.47
2023-02-25T06:00:20.902Z,0.45
2023-02-25T06:01:20.898Z,0.45
2023-02-25T06:02:20.912Z,0.44
2023-02-25T06:03:21.125Z,0.45
2023-02-25T06:04:20.870Z,0.45
2023-02-25T06:05:20.846Z,0.47
2023-02-25T06:06:21.420Z,0.47
2023-02-25T06:07:20.818Z,0.47
2023-02-25T06:08:20.780Z,0.47
2023-02-25T06:09:20.766Z,0.45
2023-02-25T06:10:20.794Z,0.44
2023-02-25T06:11:20.782Z,0.45
2023-02-25T06:12:20.776Z,0.45
2023-02-25T06:13:20.745Z,0.47
2023-02-25T06:14:20.719Z,0.45
2023-02-25T06:15:20.714Z,0.45
2023-02-25T06:16:20.925Z,0.45
2023-02-25T06:17:21.159Z,0.45
2023-02-25T06:18:20.745Z,0.47
2023-02-25T06:19:20.682Z,0.45
2023-02-25T06:20:20.658Z,0.47
2023-02-25T06:21:20.679Z,0.48
2023-02-25T06:22:20.671Z,0.50
2023-02-25T06:23:20.621Z,0.47
2023-02-25T06:24:20.682Z,0.48
2023-02-25T06:25:20.616Z,0.48
2023-02-25T06:26:20.805Z,0.48
2023-02-25T06:27:20.605Z,0.48
2023-02-25T06:28:20.611Z,0.51
2023-02-25T06:29:20.557Z,0.55
2023-02-25T06:30:20.603Z,0.51
2023-02-25T06:31:20.640Z,0.55
2023-02-25T06:32:52.402Z,0.56
2023-02-25T06:33:20.516Z,0.55
2023-02-25T06:34:20.545Z,0.55
2023-02-25T06:35:20.498Z,0.55
2023-02-25T06:36:20.913Z,0.56
2023-02-25T06:37:20.476Z,0.59
2023-02-25T06:38:20.510Z,0.60
2023-02-25T06:39:20.460Z,0.63
2023-02-25T06:40:20.459Z,0.62
2023-02-25T06:41:20.445Z,0.62
2023-02-25T06:42:20.424Z,0.63
2023-02-25T06:43:20.426Z,0.64
2023-02-25T06:44:20.452Z,0.63
2023-02-25T06:45:20.400Z,0.64
2023-02-25T06:46:20.452Z,0.66
2023-02-25T06:47:21.264Z,0.69
2023-02-25T06:48:20.883Z,0.72
2023-02-25T06:49:20.429Z,0.73
2023-02-25T06:50:20.372Z,0.73
2023-02-25T06:51:20.386Z,0.73
2023-02-25T06:52:20.343Z,0.74
2023-02-25T06:53:20.328Z,0.74
2023-02-25T06:54:20.297Z,0.72
2023-02-25T06:55:20.303Z,0.74
2023-02-25T06:56:20.472Z,0.74
2023-02-25T06:57:20.284Z,0.80
2023-02-25T06:58:20.257Z,0.82
2023-02-25T06:59:20.249Z,0.81
2023-02-25T07:00:20.254Z,0.84
2023-02-25T07:01:20.755Z,0.87
2023-02-25T07:03:31.028Z,0.85
2023-02-25T07:04:31.018Z,0.85
2023-02-25T07:05:30.958Z,0.85
2023-02-25T07:06:30.924Z,0.84
2023-02-25T07:07:31.237Z,0.84
2023-02-25T07:08:30.993Z,0.88
2023-02-25T07:09:30.905Z,0.91
2023-02-25T07:10:30.873Z,0.91
2023-02-25T07:11:30.903Z,0.88
2023-02-25T07:12:30.880Z,0.90
2023-02-25T07:13:30.899Z,0.94
2023-02-25T07:14:30.846Z,0.94
2023-02-25T07:15:30.919Z,0.96
2023-02-25T07:16:30.842Z,0.96
2023-02-25T07:17:30.806Z,0.98
2023-02-25T07:18:30.884Z,1.00
2023-02-25T07:19:30.825Z,1.00
2023-02-25T07:20:31.203Z,0.96
2023-02-25T07:21:30.831Z,0.98
2023-02-25T07:22:30.754Z,0.98
2023-02-25T07:23:30.752Z,0.98
2023-02-25T07:24:30.737Z,0.98
2023-02-25T07:25:30.871Z,0.99
2023-02-25T07:26:30.792Z,1.00
2023-02-25T07:27:30.722Z,1.02
2023-02-25T07:28:30.729Z,1.03
2023-02-25T07:29:30.704Z,1.02
2023-02-25T07:30:30.668Z,0.99
2023-02-25T07:31:30.790Z,0.94
2023-02-25T07:32:30.868Z,0.91
2023-02-25T07:33:30.789Z,0.88
2023-02-25T07:34:30.755Z,0.88
2023-02-25T07:35:30.628Z,0.88
2023-02-25T07:36:30.651Z,0.91
2023-02-25T07:37:30.619Z,0.91
2023-02-25T07:38:30.586Z,0.87
2023-02-25T07:39:30.606Z,0.85
2023-02-25T07:40:30.568Z,0.85
2023-02-25T07:41:30.573Z,0.82
2023-02-25T07:42:30.556Z,0.80
2023-02-25T07:43:30.553Z,0.73
2023-02-25T07:44:30.586Z,0.74
2023-02-25T07:45:30.526Z,0.74
2023-02-25T07:46:30.602Z,0.70
2023-02-25T07:47:30.525Z,0.67
2023-02-25T07:48:30.499Z,0.63
2023-02-25T07:49:30.509Z,0.64
2023-02-25T07:50:30.505Z,0.64
2023-02-25T07:51:30.496Z,0.62
2023-02-25T07:52:30.447Z,0.63
2023-02-25T07:53:30.484Z,0.70
2023-02-25T07:54:30.427Z,0.73
2023-02-25T07:55:30.427Z,0.72
2023-02-25T07:56:30.404Z,0.50
2023-02-25T07:57:30.401Z,0.50
2023-02-25T07:58:30.443Z,0.55
2023-02-25T07:59:30.417Z,0.60
2023-02-25T08:00:30.371Z,0.50
2023-02-25T08:01:30.375Z,0.51
2023-02-25T08:02:30.381Z,0.55
2023-02-25T08:03:30.415Z,0.59
2023-02-25T08:04:30.390Z,0.63
2023-02-25T08:05:30.365Z,0.69
2023-02-25T08:06:30.313Z,0.74
2023-02-25T08:07:30.336Z,0.70
2023-02-25T08:08:30.395Z,0.60
2023-02-25T08:09:30.501Z,0.59
2023-02-25T08:10:30.345Z,0.62
2023-02-25T08:11:30.369Z,0.53
2023-02-25T08:12:30.285Z,0.60
2023-02-25T08:13:30.237Z,0.69
2023-02-25T08:14:30.235Z,0.72
2023-02-25T08:15:30.429Z,0.73
2023-02-25T08:16:30.242Z,0.73
2023-02-25T08:17:30.198Z,0.67
2023-02-25T08:18:30.199Z,0.64
2023-02-25T08:19:30.206Z,0.66
2023-02-25T08:20:30.201Z,0.70
2023-02-25T08:21:30.213Z,0.73
2023-02-25T08:22:30.239Z,0.69
2023-02-25T08:23:30.186Z,0.69
2023-02-25T08:24:30.164Z,0.67
2023-02-25T08:25:30.220Z,0.70
2023-02-25T08:26:30.115Z,0.56
2023-02-25T08:27:30.166Z,0.60
2023-02-25T08:28:33.434Z,0.64
2023-02-25T08:29:30.207Z,0.70
2023-02-25T08:30:30.075Z,0.72
2023-02-25T08:31:30.273Z,0.69
2023-02-25T08:32:30.191Z,0.48
2023-02-25T08:33:30.074Z,0.50
2023-02-25T08:34:30.042Z,0.55
2023-02-25T08:35:30.033Z,0.69
2023-02-25T08:36:30.000Z,0.69
2023-02-25T08:37:29.990Z,0.72
2023-02-25T08:38:29.981Z,0.66
2023-02-25T08:39:30.021Z,0.56
2023-02-25T08:40:29.997Z,0.60
2023-02-25T08:41:30.306Z,0.55
2023-02-25T08:42:29.956Z,0.56
2023-02-25T08:43:30.722Z,0.64
2023-02-25T08:44:30.012Z,0.66
2023-02-25T08:45:29.911Z,0.53
2023-02-25T08:46:29.986Z,0.55
2023-02-25T08:47:29.947Z,0.62
2023-02-25T08:48:29.910Z,0.64
2023-02-25T08:49:29.915Z,0.56
2023-02-25T09:44:16.754Z,1.13
2023-02-25T09:45:16.691Z,1.17
2023-02-25T09:46:16.809Z,1.13
2023-02-25T09:47:16.750Z,1.16
2023-02-25T09:48:16.680Z,1.23
2023-02-25T09:49:16.667Z,1.23
2023-02-25T09:50:16.668Z,1.24
2023-02-25T09:51:16.636Z,1.30
2023-02-25T09:52:16.652Z,1.26
2023-02-25T09:53:16.631Z,1.28
2023-02-25T09:54:16.650Z,1.27
2023-02-25T09:55:16.634Z,1.28
2023-02-25T09:56:16.586Z,1.35
2023-02-25T09:57:16.583Z,1.36
2023-02-25T09:58:16.570Z,1.35
2023-02-25T09:59:16.614Z,1.24
2023-02-25T10:00:16.568Z,1.34
2023-02-25T10:01:16.562Z,1.42
2023-02-25T10:02:16.687Z,1.49
2023-02-25T10:03:16.687Z,1.49
2023-02-25T10:04:16.629Z,1.53
2023-02-25T10:05:16.515Z,1.60
2023-02-25T10:06:16.496Z,1.60
2023-02-25T10:07:16.501Z,1.53
2023-02-25T10:08:16.464Z,1.55
2023-02-25T10:09:16.452Z,1.49
2023-02-25T10:10:16.484Z,1.55
2023-02-25T10:11:16.494Z,1.64
2023-02-25T10:12:16.828Z,1.55
2023-02-25T10:13:16.412Z,1.55
2023-02-25T10:14:16.412Z,1.53
2023-02-25T10:15:16.445Z,1.62
2023-02-25T10:16:16.448Z,1.64
2023-02-25T10:17:16.386Z,1.74
2023-02-25T10:18:16.391Z,1.80
2023-02-25T10:19:16.371Z,1.78
2023-02-25T10:20:16.345Z,1.82
2023-02-25T10:21:16.456Z,1.81
2023-02-25T10:22:16.326Z,1.82
2023-02-25T10:23:16.317Z,1.85
2023-02-25T10:24:16.326Z,1.93
2023-02-25T10:25:16.290Z,1.97
2023-02-25T10:26:16.312Z,2.06
2023-02-25T10:27:16.305Z,1.97
2023-02-25T10:28:16.281Z,1.92
2023-02-25T10:29:16.246Z,1.97
2023-02-25T10:30:16.334Z,2.00
2023-02-25T10:31:16.432Z,2.01
2023-02-25T10:32:16.483Z,1.85
2023-02-25T10:33:16.215Z,1.85
2023-02-25T10:34:16.219Z,1.77
2023-02-25T10:35:16.185Z,1.77
2023-02-25T10:36:16.176Z,1.75
2023-02-25T10:37:16.196Z,1.75
2023-02-25T10:38:16.218Z,1.80
2023-02-25T10:39:16.182Z,1.63
2023-02-25T10:40:16.121Z,1.52
2023-02-25T10:41:16.146Z,1.63
2023-02-25T10:42:16.205Z,1.75
2023-02-25T10:43:16.104Z,1.82
2023-02-25T10:44:16.118Z,1.92
2023-02-25T10:45:16.079Z,1.97
2023-02-25T10:46:16.160Z,2.12
2023-02-25T10:47:16.087Z,2.15
2023-02-25T10:48:16.143Z,2.12
2023-02-25T10:49:16.543Z,2.04
2023-02-25T10:50:16.039Z,2.12
2023-02-25T10:51:16.100Z,2.04
2023-02-25T10:52:16.034Z,1.85
2023-02-25T10:53:16.054Z,1.92
2023-02-25T10:54:15.983Z,2.04
2023-02-25T10:55:15.983Z,2.12
2023-02-25T10:56:15.965Z,2.01
2023-02-25T10:57:15.974Z,2.00
2023-02-25T10:58:15.939Z,1.97
2023-02-25T10:59:15.945Z,1.81
2023-02-25T11:00:15.919Z,1.74
2023-02-25T11:01:16.016Z,1.71
2023-02-25T11:02:26.988Z,1.69
2023-02-25T11:03:15.891Z,1.69
2023-02-25T11:04:16.470Z,1.81
2023-02-25T11:05:15.906Z,1.77
2023-02-25T11:06:15.905Z,1.85
2023-02-25T11:07:15.924Z,1.89
2023-02-25T11:08:15.860Z,1.85
2023-02-25T11:09:15.836Z,1.82
2023-02-25T11:10:15.966Z,1.84
2023-02-25T11:11:15.805Z,1.93
2023-02-25T11:12:15.805Z,2.04
2023-02-25T11:13:15.815Z,2.01
2023-02-25T11:14:15.787Z,1.82
2023-02-25T11:15:15.766Z,1.85
2023-02-25T11:16:16.014Z,1.73
2023-02-25T11:17:15.781Z,1.62
2023-02-25T11:18:15.746Z,1.71
2023-02-25T11:19:15.739Z,1.81
2023-02-25T11:20:15.740Z,1.92
2023-02-25T11:21:15.752Z,2.00
2023-02-25T11:22:15.718Z,2.10
2023-02-25T11:23:15.681Z,2.14
2023-02-25T11:24:15.684Z,2.07
2023-02-25T11:25:15.674Z,2.10
2023-02-25T11:26:15.696Z,2.14
2023-02-25T11:27:15.644Z,2.18
2023-02-25T11:28:15.780Z,2.00
2023-02-25T11:29:15.699Z,1.95
2023-02-25T11:30:15.614Z,2.00
2023-02-25T11:31:15.874Z,2.06
2023-02-25T11:32:15.734Z,1.97
2023-02-25T11:33:15.628Z,1.91
2023-02-25T11:34:15.609Z,1.99
2023-02-25T11:35:15.569Z,2.00
2023-02-25T11:36:15.571Z,2.00
2023-02-25T11:37:15.671Z,2.06
2023-02-25T11:38:15.556Z,2.10
2023-02-25T11:39:15.528Z,2.11
2023-02-25T11:40:15.554Z,2.17
2023-02-25T11:41:15.497Z,2.30
2023-02-25T11:42:15.502Z,2.37
2023-02-25T11:43:15.487Z,2.50
2023-02-25T11:44:15.465Z,2.33
2023-02-25T11:45:15.516Z,2.35
2023-02-25T11:46:15.513Z,2.40
2023-02-25T11:47:15.474Z,2.42
2023-02-25T11:48:15.432Z,2.45
2023-02-25T11:49:15.432Z,2.54
2023-02-25T11:50:15.430Z,2.57
2023-02-25T11:51:15.543Z,2.45
2023-02-25T11:52:15.426Z,2.33
2023-02-25T11:53:15.484Z,2.39
2023-02-25T11:54:15.369Z,2.32
2023-02-25T11:55:15.391Z,2.36
2023-02-25T11:56:15.404Z,2.29
2023-02-25T11:57:15.405Z,2.42
2023-02-25T11:58:15.353Z,2.37
2023-02-25T11:59:15.311Z,2.24
2023-02-25T12:00:15.312Z,2.28
2023-02-25T12:01:15.294Z,2.30
2023-02-25T12:02:15.486Z,2.40
2023-02-25T12:03:15.352Z,2.45
2023-02-25T12:04:15.260Z,2.48
2023-02-25T12:05:15.292Z,2.42
2023-02-25T12:06:15.244Z,2.32
2023-02-25T12:07:15.259Z,2.32
2023-02-25T12:08:15.302Z,2.28
2023-02-25T12:09:15.274Z,2.30
2023-02-25T12:10:15.217Z,2.30
2023-02-25T12:11:15.253Z,2.24
2023-02-25T12:12:15.198Z,2.29
2023-02-25T12:13:15.216Z,2.24
2023-02-25T12:14:15.301Z,2.15
2023-02-25T12:15:15.188Z,2.10
2023-02-25T12:16:15.260Z,2.04
2023-02-25T12:17:15.124Z,2.11
2023-02-25T12:18:15.144Z,2.14
2023-02-25T12:19:15.168Z,2.04
2023-02-25T12:20:15.243Z,1.97
2023-02-25T12:21:15.134Z,2.00
2023-02-25T12:22:15.090Z,2.04
2023-02-25T12:23:15.064Z,2.12
2023-02-25T12:24:15.193Z,2.15
2023-02-25T12:25:15.074Z,2.25
2023-02-25T12:26:15.136Z,2.33
2023-02-25T12:27:15.057Z,2.42
2023-02-25T12:28:15.025Z,2.39
2023-02-25T12:29:15.152Z,2.33
2023-02-25T12:30:15.022Z,2.40
2023-02-25T12:31:15.059Z,2.47
2023-02-25T12:32:15.093Z,2.42
2023-02-25T12:33:14.967Z,2.36
2023-02-25T12:34:14.967Z,2.32
2023-02-25T12:35:14.959Z,2.35
2023-02-25T12:36:14.994Z,2.36
2023-02-25T12:37:14.965Z,2.24
2023-02-25T12:38:14.963Z,2.18
2023-02-25T12:39:14.897Z,2.24
2023-02-25T12:40:15.094Z,2.25
2023-02-25T12:41:14.872Z,2.21
2023-02-25T12:42:14.878Z,2.25
2023-02-25T12:43:14.893Z,2.30
2023-02-25T12:44:14.859Z,2.37
2023-02-25T12:45:14.890Z,2.25
2023-02-25T12:46:14.845Z,2.35
2023-02-25T12:47:14.846Z,2.40
2023-02-25T12:48:14.833Z,2.53
2023-02-25T12:49:14.805Z,2.60
2023-02-25T12:50:14.892Z,2.65
2023-02-25T12:51:14.819Z,2.57
2023-02-25T12:52:17.320Z,2.58
2023-02-25T12:53:14.757Z,2.63
2023-02-25T12:54:14.743Z,2.58
2023-02-25T12:55:14.738Z,2.51
2023-02-25T12:56:14.792Z,2.50
2023-02-25T12:57:14.772Z,2.55
2023-02-25T12:58:16.571Z,2.68
2023-02-25T12:59:14.693Z,2.69
2023-02-25T13:00:14.682Z,2.63
2023-02-25T13:01:14.781Z,2.69
2023-02-25T13:02:25.364Z,2.63
2023-02-25T13:03:14.706Z,2.66
2023-02-25T13:04:14.650Z,2.55
2023-02-25T13:05:14.711Z,2.35
2023-02-25T13:06:14.700Z,2.51
2023-02-25T13:07:14.611Z,2.50
2023-02-25T13:08:14.667Z,2.50
2023-02-25T13:09:14.599Z,2.45
2023-02-25T13:10:14.642Z,2.58
2023-02-25T13:11:14.566Z,2.68
2023-02-25T13:12:14.660Z,2.54
2023-02-25T13:13:14.754Z,2.40
2023-02-25T13:14:14.607Z,2.50
2023-02-25T13:15:14.520Z,2.48
2023-02-25T13:16:14.648Z,2.66
2023-02-25T13:17:14.629Z,2.65
2023-02-25T13:18:14.507Z,2.76
2023-02-25T13:19:14.519Z,2.76
2023-02-25T13:20:14.566Z,2.73
2023-02-25T13:21:14.470Z,2.78
2023-02-25T13:22:14.482Z,2.75
2023-02-25T13:23:14.456Z,2.81
2023-02-25T13:24:14.491Z,2.94
2023-02-25T13:25:14.498Z,2.91
2023-02-25T13:26:14.407Z,2.90
2023-02-25T13:27:14.451Z,2.66
2023-02-25T13:28:14.412Z,2.65
2023-02-25T13:29:14.410Z,2.78
2023-02-25T13:30:14.481Z,2.96
2023-02-25T13:31:14.501Z,3.11
2023-02-25T13:32:19.366Z,3.02
2023-02-25T13:33:14.377Z,2.93
2023-02-25T13:34:14.374Z,2.69
2023-02-25T13:35:14.420Z,2.51
2023-02-25T13:36:14.340Z,2.53
2023-02-25T13:37:14.348Z,2.45
2023-02-25T13:38:14.352Z,2.63
2023-02-25T13:39:14.390Z,2.75
2023-02-25T13:40:14.269Z,2.72
2023-02-25T13:41:14.772Z,2.75
2023-02-25T13:42:14.245Z,2.87
2023-02-25T13:43:14.246Z,2.78
2023-02-25T13:44:14.241Z,2.86
2023-02-25T13:45:14.293Z,2.78
2023-02-25T13:46:14.296Z,2.81
2023-02-25T13:47:14.205Z,2.89
2023-02-25T13:48:14.230Z,3.08
2023-02-25T13:49:14.193Z,3.05
2023-02-25T13:50:14.187Z,2.94
2023-02-25T13:51:14.145Z,2.91
2023-02-25T13:52:14.156Z,3.04
2023-02-25T13:53:14.213Z,3.05
2023-02-25T13:54:14.133Z,3.17
2023-02-25T13:55:14.129Z,3.23
2023-02-25T13:56:14.114Z,3.29
2023-02-25T13:57:14.110Z,3.36
2023-02-25T13:58:14.088Z,3.46
2023-02-25T13:59:14.089Z,3.49
2023-02-25T14:00:14.093Z,3.48
2023-02-25T14:01:14.130Z,3.49
2023-02-25T14:02:18.916Z,3.59
2023-02-25T14:03:14.097Z,3.55
2023-02-25T14:04:14.013Z,3.62
2023-02-25T14:05:14.002Z,3.64
2023-02-25T14:06:14.084Z,3.59
2023-02-25T14:07:13.999Z,3.48
2023-02-25T14:08:14.000Z,3.36
2023-02-25T14:09:14.001Z,3.46
2023-02-25T14:10:13.959Z,3.22
2023-02-25T14:11:13.942Z,3.12
2023-02-25T14:12:13.995Z,3.14
2023-02-25T14:13:13.966Z,3.07
2023-02-25T14:14:13.943Z,3.22
2023-02-25T14:15:13.976Z,3.37
2023-02-25T14:16:13.966Z,3.44
2023-02-25T14:17:14.010Z,3.36
2023-02-25T14:18:13.894Z,3.11
2023-02-25T14:19:13.881Z,3.18
2023-02-25T14:20:13.863Z,3.07
2023-02-25T14:21:13.843Z,3.18
2023-02-25T14:22:13.836Z,3.30
2023-02-25T14:23:13.922Z,3.29
2023-02-25T14:24:13.812Z,3.25
2023-02-25T14:25:13.838Z,3.15
2023-02-25T14:26:13.827Z,3.18
2023-02-25T14:27:13.791Z,3.00
2023-02-25T14:28:13.785Z,3.02
2023-02-25T14:29:13.807Z,3.07
2023-02-25T14:30:13.789Z,3.07
2023-02-25T14:31:13.994Z,3.17
2023-02-25T14:32:18.370Z,3.22
2023-02-25T14:33:13.724Z,3.15
2023-02-25T14:34:13.709Z,3.11
2023-02-25T14:35:13.771Z,3.05
2023-02-25T14:36:13.807Z,3.18
2023-02-25T14:37:13.687Z,3.29
2023-02-25T14:38:13.818Z,3.36
2023-02-25T14:39:13.703Z,3.37
2023-02-25T14:40:13.660Z,3.25
2023-02-25T14:41:13.705Z,3.29
2023-02-25T14:42:13.687Z,3.20
2023-02-25T14:43:13.670Z,3.20
2023-02-25T14:44:13.634Z,3.22
2023-02-25T14:45:21.159Z,3.14
2023-02-25T14:46:13.691Z,3.12
2023-02-25T14:47:13.610Z,3.17
2023-02-25T14:48:13.588Z,3.12
2023-02-25T14:49:13.552Z,3.02
2023-02-25T14:50:13.637Z,2.86
2023-02-25T14:51:13.580Z,2.76
2023-02-25T14:52:13.518Z,2.75
2023-02-25T14:53:13.505Z,2.76
2023-02-25T14:54:13.556Z,2.75
2023-02-25T14:55:13.494Z,2.76
2023-02-25T14:56:13.527Z,2.82
2023-02-25T14:57:13.525Z,2.82
2023-02-25T14:58:13.458Z,2.87
2023-02-25T14:59:13.575Z,2.86
2023-02-25T15:00:13.469Z,2.81
2023-02-25T15:01:13.819Z,2.79
2023-02-25T15:02:13.466Z,2.73
2023-02-25T15:03:13.438Z,2.68
2023-02-25T15:04:13.419Z,2.55
2023-02-25T15:05:15.445Z,2.48
2023-02-25T15:06:13.393Z,2.40
2023-02-25T15:07:13.375Z,2.36
2023-02-25T15:08:13.878Z,2.35
2023-02-25T15:09:13.340Z,2.36
2023-02-25T15:10:13.337Z,2.37
2023-02-25T15:11:13.346Z,2.33
2023-02-25T15:12:13.333Z,2.32
2023-02-25T15:13:13.303Z,2.18
2023-02-25T15:14:13.308Z,2.11
2023-02-25T15:15:13.286Z,2.06
2023-02-25T15:16:13.414Z,2.03
2023-02-25T15:17:13.308Z,2.06
2023-02-25T15:18:13.260Z,2.04
2023-02-25T15:19:13.272Z,2.03
2023-02-25T15:20:13.299Z,2.06
2023-02-25T15:21:13.216Z,1.99
2023-02-25T15:22:13.207Z,2.03
2023-02-25T15:23:13.200Z,1.99
2023-02-25T15:24:13.203Z,1.99
2023-02-25T15:25:13.184Z,1.89
2023-02-25T15:26:13.177Z,1.85
2023-02-25T15:27:13.173Z,1.87
2023-02-25T15:28:13.143Z,1.89
2023-02-25T15:29:13.167Z,1.91
2023-02-25T15:30:13.317Z,1.92
2023-02-25T15:31:13.244Z,1.93
2023-02-25T15:32:13.156Z,1.97
2023-02-25T15:33:13.095Z,2.00
2023-02-25T15:34:13.091Z,2.01
2023-02-25T15:35:13.079Z,2.01
2023-02-25T15:36:13.108Z,2.00
2023-02-25T15:37:13.054Z,1.99
2023-02-25T15:38:13.037Z,1.95
2023-02-25T15:39:13.068Z,1.97
2023-02-25T15:40:13.021Z,1.99
2023-02-25T15:41:13.008Z,2.01
2023-02-25T15:42:13.002Z,2.03
2023-02-25T15:43:12.992Z,1.97
2023-02-25T15:44:13.017Z,1.97
2023-02-25T15:45:14.932Z,1.97
2023-02-25T15:46:13.999Z,1.97
2023-02-25T15:47:12.984Z,2.01
2023-02-25T15:48:12.942Z,2.06
2023-02-25T15:49:12.932Z,2.11
2023-02-25T15:50:12.920Z,2.10
2023-02-25T15:51:12.928Z,2.06
2023-02-25T15:52:12.932Z,1.85
2023-02-25T15:53:12.901Z,1.87
2023-02-25T15:54:12.909Z,1.85
2023-02-25T15:55:12.898Z,1.87
2023-02-25T15:56:12.868Z,1.89
2023-02-25T15:57:12.873Z,1.93
2023-02-25T15:58:12.836Z,1.97
2023-02-25T15:59:12.853Z,1.99
2023-02-25T16:00:12.940Z,1.99
2023-02-25T16:01:12.859Z,1.95
2023-02-25T16:02:12.823Z,1.89
2023-02-25T16:03:14.720Z,1.87
2023-02-25T16:04:12.774Z,1.84
2023-02-25T16:05:12.775Z,1.82
2023-02-25T16:06:12.796Z,1.82
2023-02-25T16:07:12.757Z,1.71
2023-02-25T16:08:12.790Z,1.63
2023-02-25T16:09:12.806Z,1.53
2023-02-25T16:10:12.722Z,1.49
2023-02-25T16:11:12.730Z,1.52
2023-02-25T16:12:12.695Z,1.55
2023-02-25T16:13:12.701Z,1.52
2023-02-25T16:14:12.706Z,1.52
2023-02-25T16:15:12.684Z,1.46
2023-02-25T16:16:12.729Z,1.46
2023-02-25T16:17:12.661Z,1.44
2023-02-25T16:18:12.759Z,1.41
2023-02-25T16:19:12.656Z,1.38
2023-02-25T16:20:12.665Z,1.35
2023-02-25T16:21:12.609Z,1.36
2023-02-25T16:22:12.586Z,1.35
2023-02-25T16:23:12.575Z,1.42
2023-02-25T16:24:12.593Z,1.45
2023-02-25T16:25:12.568Z,1.46
2023-02-25T16:26:12.615Z,1.44
2023-02-25T16:27:12.561Z,1.44
2023-02-25T16:28:12.527Z,1.39
2023-02-25T16:29:12.516Z,1.38
2023-02-25T16:30:12.509Z,1.35
2023-02-25T16:31:12.558Z,1.35
2023-02-25T16:32:12.661Z,1.36
2023-02-25T16:33:12.491Z,1.34
2023-02-25T16:34:12.464Z,1.31
2023-02-25T16:35:12.482Z,1.28
2023-02-25T16:36:12.486Z,1.31
2023-02-25T16:37:12.454Z,1.28
2023-02-25T16:38:12.470Z,1.28
2023-02-25T16:39:12.413Z,1.24
2023-02-25T16:40:12.422Z,1.23
2023-02-25T16:41:12.394Z,1.21
2023-02-25T16:42:12.382Z,1.20
2023-02-25T16:43:12.378Z,1.20
2023-02-25T16:44:12.407Z,1.17
2023-02-25T16:45:12.363Z,1.16
2023-02-25T16:46:12.344Z,1.13
2023-02-25T16:47:12.329Z,1.12
2023-02-25T16:48:12.341Z,1.08
2023-02-25T16:49:12.373Z,1.06
2023-02-25T16:50:12.306Z,1.03
2023-02-25T16:51:12.368Z,1.02
2023-02-25T16:52:12.276Z,1.00
2023-02-25T16:53:12.268Z,1.00
2023-02-25T16:54:12.264Z,0.99
2023-02-25T16:55:12.822Z,0.96
2023-02-25T16:56:12.253Z,0.92
2023-02-25T16:57:12.227Z,0.91
2023-02-25T16:58:12.215Z,0.88
2023-02-25T16:59:12.221Z,0.85
2023-02-25T17:00:12.236Z,0.87